sensor_id;sensor_type;location;lat;lon;timestamp;P1;durP1;ratioP1;P2;durP2;ratioP2
16387;SDS011;8303;53.446;9.988;2023-02-28T05:46:16;9.60;;;7.67;;
16387;SDS011;8303;53.446;9.988;2023-02-28T05:48:45;10.43;;;6.80;;
16387;SDS011;8303;53.446;9.988;2023-02-28T05:51:13;8.60;;;7.10;;
16387;SDS011;8303;53.446;9.988;2023-02-28T05:53:41;9.00;;;6.83;;
16387;SDS011;8303;53.446;9.988;2023-02-28T05:56:08;22.30;;;9.47;;
16387;SDS011;8303;53.446;9.988;2023-02-28T05:58:36;9.30;;;7.60;;
16387;SDS011;8303;53.446;9.988;2023-02-28T06:03:47;7.90;;;6.83;;
16387;SDS011;8303;53.446;9.988;2023-02-28T06:06:15;9.83;;;6.97;;
16387;SDS011;8303;53.446;9.988;2023-02-28T06:08:42;7.87;;;7.07;;
16387;SDS011;8303;53.446;9.988;2023-02-28T06:11:09;7.60;;;6.80;;
16387;SDS011;8303;53.446;9.988;2023-02-28T06:13:38;8.67;;;6.50;;
16387;SDS011;8303;53.446;9.988;2023-02-28T06:16:05;9.60;;;6.60;;
16387;SDS011;8303;53.446;9.988;2023-02-28T06:18:33;9.80;;;6.30;;
16387;SDS011;8303;53.446;9.988;2023-02-28T06:21:01;12.53;;;6.80;;
16387;SDS011;8303;53.446;9.988;2023-02-28T06:23:29;8.23;;;7.23;;
16387;SDS011;8303;53.446;9.988;2023-02-28T06:25:56;10.27;;;6.67;;
16387;SDS011;8303;53.446;9.988;2023-02-28T06:28:24;11.70;;;8.67;;
16387;SDS011;8303;53.446;9.988;2023-02-28T06:30:51;9.73;;;7.80;;
16387;SDS011;8303;53.446;9.988;2023-02-28T06:33:18;10.07;;;6.83;;
16387;SDS011;8303;53.446;9.988;2023-02-28T06:35:47;11.70;;;8.10;;
16387;SDS011;8303;53.446;9.988;2023-02-28T06:38:16;11.17;;;7.40;;
16387;SDS011;8303;53.446;9.988;2023-02-28T06:40:44;11.50;;;7.27;;
16387;SDS011;8303;53.446;9.988;2023-02-28T06:43:18;9.57;;;7.73;;
16387;SDS011;8303;53.446;9.988;2023-02-28T06:45:45;10.87;;;8.63;;
16387;SDS011;8303;53.446;9.988;2023-02-28T06:48:14;13.30;;;8.50;;
16387;SDS011;8303;53.446;9.988;2023-02-28T06:50:42;10.40;;;7.70;;
16387;SDS011;8303;53.446;9.988;2023-02-28T06:53:11;10.20;;;9.20;;
16387;SDS011;8303;53.446;9.988;2023-02-28T06:55:38;10.00;;;8.10;;
16387;SDS011;8303;53.446;9.988;2023-02-28T06:58:06;11.03;;;7.93;;
16387;SDS011;8303;53.446;9.988;2023-02-28T07:00:41;13.47;;;8.27;;
16387;SDS011;8303;53.446;9.988;2023-02-28T07:03:08;9.53;;;7.63;;
16387;SDS011;8303;53.446;9.988;2023-02-28T07:05:36;12.90;;;7.63;;
16387;SDS011;8303;53.446;9.988;2023-02-28T07:08:05;13.10;;;9.17;;
16387;SDS011;8303;53.446;9.988;2023-02-28T07:10:42;9.03;;;7.70;;
16387;SDS011;8303;53.446;9.988;2023-02-28T07:13:10;18.83;;;9.37;;
16387;SDS011;8303;53.446;9.988;2023-02-28T07:15:37;11.87;;;8.17;;
16387;SDS011;8303;53.446;9.988;2023-02-28T07:18:05;10.13;;;7.50;;
16387;SDS011;8303;53.446;9.988;2023-02-28T07:20:32;11.77;;;7.90;;
16387;SDS011;8303;53.446;9.988;2023-02-28T07:22:59;12.63;;;8.20;;
16387;SDS011;8303;53.446;9.988;2023-02-28T07:25:27;18.43;;;8.03;;
16387;SDS011;8303;53.446;9.988;2023-02-28T07:27:56;12.50;;;8.50;;
16387;SDS011;8303;53.446;9.988;2023-02-28T07:30:25;10.97;;;8.33;;
16387;SDS011;8303;53.446;9.988;2023-02-28T07:32:52;14.07;;;8.73;;
16387;SDS011;8303;53.446;9.988;2023-02-28T07:35:21;9.67;;;7.67;;
16387;SDS011;8303;53.446;9.988;2023-02-28T07:37:48;8.90;;;7.60;;
16387;SDS011;8303;53.446;9.988;2023-02-28T07:40:16;10.43;;;7.80;;
16387;SDS011;8303;53.446;9.988;2023-02-28T07:42:43;12.93;;;8.53;;
16387;SDS011;8303;53.446;9.988;2023-02-28T07:45:12;17.30;;;9.23;;
16387;SDS011;8303;53.446;9.988;2023-02-28T07:47:39;9.43;;;8.07;;
16387;SDS011;8303;53.446;9.988;2023-02-28T07:50:10;9.50;;;8.30;;
16387;SDS011;8303;53.446;9.988;2023-02-28T07:52:39;9.10;;;7.77;;
16387;SDS011;8303;53.446;9.988;2023-02-28T07:55:07;12.00;;;8.93;;
16387;SDS011;8303;53.446;9.988;2023-02-28T07:57:35;15.53;;;8.30;;
16387;SDS011;8303;53.446;9.988;2023-02-28T08:00:03;13.77;;;8.50;;
16387;SDS011;8303;53.446;9.988;2023-02-28T08:02:33;11.93;;;7.73;;
16387;SDS011;8303;53.446;9.988;2023-02-28T08:05:00;13.67;;;8.47;;
16387;SDS011;8303;53.446;9.988;2023-02-28T08:07:27;11.10;;;8.37;;
16387;SDS011;8303;53.446;9.988;2023-02-28T08:09:54;11.83;;;8.33;;
16387;SDS011;8303;53.446;9.988;2023-02-28T08:12:21;16.00;;;9.10;;
16387;SDS011;8303;53.446;9.988;2023-02-28T08:14:48;10.60;;;8.57;;
16387;SDS011;8303;53.446;9.988;2023-02-28T08:17:15;24.97;;;10.30;;
16387;SDS011;8303;53.446;9.988;2023-02-28T08:19:46;14.83;;;9.10;;
16387;SDS011;8303;53.446;9.988;2023-02-28T08:22:13;20.43;;;11.10;;
16387;SDS011;8303;53.446;9.988;2023-02-28T08:24:40;14.57;;;9.53;;
16387;SDS011;8303;53.446;9.988;2023-02-28T08:27:08;16.43;;;10.57;;
16387;SDS011;8303;53.446;9.988;2023-02-28T08:29:36;15.90;;;10.17;;
16387;SDS011;8303;53.446;9.988;2023-02-28T08:32:04;14.77;;;9.73;;
16387;SDS011;8303;53.446;9.988;2023-02-28T08:34:31;17.50;;;9.93;;
16387;SDS011;8303;53.446;9.988;2023-02-28T08:37:00;16.77;;;9.60;;
16387;SDS011;8303;53.446;9.988;2023-02-28T08:39:27;20.50;;;9.57;;
16387;SDS011;8303;53.446;9.988;2023-02-28T08:41:54;12.67;;;9.17;;
16387;SDS011;8303;53.446;9.988;2023-02-28T08:44:21;12.50;;;9.50;;
16387;SDS011;8303;53.446;9.988;2023-02-28T08:46:48;11.90;;;8.83;;
16387;SDS011;8303;53.446;9.988;2023-02-28T08:49:15;12.53;;;8.57;;
16387;SDS011;8303;53.446;9.988;2023-02-28T08:51:43;13.90;;;8.17;;
16387;SDS011;8303;53.446;9.988;2023-02-28T08:54:11;12.77;;;8.70;;
16387;SDS011;8303;53.446;9.988;2023-02-28T08:56:41;14.40;;;7.60;;
16387;SDS011;8303;53.446;9.988;2023-02-28T08:59:08;22.33;;;8.53;;
16387;SDS011;8303;53.446;9.988;2023-02-28T09:01:35;17.13;;;8.77;;
16387;SDS011;8303;53.446;9.988;2023-02-28T09:04:02;9.37;;;8.37;;
16387;SDS011;8303;53.446;9.988;2023-02-28T09:06:32;10.43;;;7.40;;
16387;SDS011;8303;53.446;9.988;2023-02-28T09:08:59;9.73;;;7.10;;
16387;SDS011;8303;53.446;9.988;2023-02-28T09:11:27;10.60;;;7.10;;
16387;SDS011;8303;53.446;9.988;2023-02-28T09:13:55;9.93;;;6.70;;
16387;SDS011;8303;53.446;9.988;2023-02-28T09:16:22;10.10;;;7.20;;
16387;SDS011;8303;53.446;9.988;2023-02-28T09:18:49;9.90;;;8.00;;
16387;SDS011;8303;53.446;9.988;2023-02-28T09:21:16;13.97;;;7.90;;
16387;SDS011;8303;53.446;9.988;2023-02-28T09:23:46;8.47;;;7.50;;
16387;SDS011;8303;53.446;9.988;2023-02-28T09:26:14;10.43;;;6.97;;
16387;SDS011;8303;53.446;9.988;2023-02-28T09:28:44;11.63;;;7.20;;
16387;SDS011;8303;53.446;9.988;2023-02-28T09:31:12;8.17;;;7.37;;
16387;SDS011;8303;53.446;9.988;2023-02-28T09:33:41;8.97;;;7.07;;
16387;SDS011;8303;53.446;9.988;2023-02-28T09:36:08;10.87;;;7.13;;
16387;SDS011;8303;53.446;9.988;2023-02-28T09:38:35;9.73;;;7.77;;
16387;SDS011;8303;53.446;9.988;2023-02-28T09:41:03;9.33;;;7.53;;
16387;SDS011;8303;53.446;9.988;2023-02-28T09:43:37;11.40;;;8.17;;
16387;SDS011;8303;53.446;9.988;2023-02-28T09:46:12;8.17;;;6.77;;
16387;SDS011;8303;53.446;9.988;2023-02-28T09:48:47;9.83;;;7.67;;
16387;SDS011;8303;53.446;9.988;2023-02-28T09:51:23;6.17;;;5.57;;
16387;SDS011;8303;53.446;9.988;2023-02-28T09:53:56;10.33;;;6.43;;
16387;SDS011;8303;53.446;9.988;2023-02-28T09:56:24;7.17;;;6.50;;
16387;SDS011;8303;53.446;9.988;2023-02-28T09:58:58;11.77;;;6.30;;
16387;SDS011;8303;53.446;9.988;2023-02-28T10:01:30;7.47;;;6.87;;
16387;SDS011;8303;53.446;9.988;2023-02-28T10:04:03;6.60;;;6.20;;
16387;SDS011;8303;53.446;9.988;2023-02-28T10:06:38;9.37;;;8.23;;
16387;SDS011;8303;53.446;9.988;2023-02-28T10:09:12;8.50;;;7.77;;
16387;SDS011;8303;53.446;9.988;2023-02-28T10:11:43;11.27;;;8.57;;
16387;SDS011;8303;53.446;9.988;2023-02-28T10:14:12;9.37;;;7.87;;
16387;SDS011;8303;53.446;9.988;2023-02-28T10:16:44;8.53;;;7.77;;
16387;SDS011;8303;53.446;9.988;2023-02-28T10:19:17;8.97;;;8.27;;
16387;SDS011;8303;53.446;9.988;2023-02-28T10:21:50;7.93;;;7.17;;
16387;SDS011;8303;53.446;9.988;2023-02-28T10:24:28;10.33;;;9.43;;
16387;SDS011;8303;53.446;9.988;2023-02-28T10:27:00;9.23;;;8.30;;
16387;SDS011;8303;53.446;9.988;2023-02-28T10:29:35;9.13;;;8.47;;
16387;SDS011;8303;53.446;9.988;2023-02-28T10:32:04;15.13;;;13.70;;
16387;SDS011;8303;53.446;9.988;2023-02-28T10:34:31;12.93;;;12.00;;
16387;SDS011;8303;53.446;9.988;2023-02-28T10:36:58;10.03;;;9.00;;
16387;SDS011;8303;53.446;9.988;2023-02-28T10:39:36;15.37;;;14.13;;
16387;SDS011;8303;53.446;9.988;2023-02-28T10:42:18;17.67;;;16.33;;
16387;SDS011;8303;53.446;9.988;2023-02-28T10:44:55;19.83;;;18.67;;
16387;SDS011;8303;53.446;9.988;2023-02-28T10:47:34;23.57;;;22.27;;
16387;SDS011;8303;53.446;9.988;2023-02-28T10:52:57;15.47;;;14.47;;
16387;SDS011;8303;53.446;9.988;2023-02-28T10:55:36;38.40;;;36.30;;
16387;SDS011;8303;53.446;9.988;2023-02-28T10:58:07;30.37;;;28.47;;
16387;SDS011;8303;53.446;9.988;2023-02-28T11:00:48;20.13;;;18.87;;
16387;SDS011;8303;53.446;9.988;2023-02-28T11:06:05;19.10;;;18.10;;
16387;SDS011;8303;53.446;9.988;2023-02-28T11:08:34;22.43;;;21.03;;
16387;SDS011;8303;53.446;9.988;2023-02-28T11:11:10;24.63;;;22.87;;
16387;SDS011;8303;53.446;9.988;2023-02-28T11:13:37;24.93;;;23.60;;
16387;SDS011;8303;53.446;9.988;2023-02-28T11:16:12;26.87;;;25.37;;
16387;SDS011;8303;53.446;9.988;2023-02-28T11:18:46;29.47;;;27.70;;
16387;SDS011;8303;53.446;9.988;2023-02-28T11:21:17;30.70;;;28.97;;
16387;SDS011;8303;53.446;9.988;2023-02-28T11:23:47;21.93;;;20.73;;
16387;SDS011;8303;53.446;9.988;2023-02-28T11:29:09;31.43;;;29.53;;
16387;SDS011;8303;53.446;9.988;2023-02-28T11:31:52;32.97;;;31.07;;
16387;SDS011;8303;53.446;9.988;2023-02-28T11:34:30;64.43;;;60.90;;
16387;SDS011;8303;53.446;9.988;2023-02-28T11:37:00;37.83;;;35.63;;
16387;SDS011;8303;53.446;9.988;2023-02-28T11:39:32;58.23;;;55.13;;
16387;SDS011;8303;53.446;9.988;2023-02-28T11:42:11;36.50;;;34.40;;
16387;SDS011;8303;53.446;9.988;2023-02-28T11:45:02;33.17;;;31.13;;
16387;SDS011;8303;53.446;9.988;2023-02-28T11:47:42;69.83;;;65.93;;
16387;SDS011;8303;53.446;9.988;2023-02-28T11:50:20;34.93;;;32.97;;
16387;SDS011;8303;53.446;9.988;2023-02-28T11:53:05;37.17;;;35.20;;
16387;SDS011;8303;53.446;9.988;2023-02-28T11:55:41;58.40;;;55.30;;
16387;SDS011;8303;53.446;9.988;2023-02-28T11:58:14;58.30;;;55.13;;
16387;SDS011;8303;53.446;9.988;2023-02-28T12:00:55;48.33;;;45.63;;
16387;SDS011;8303;53.446;9.988;2023-02-28T12:03:29;60.33;;;56.97;;
16387;SDS011;8303;53.446;9.988;2023-02-28T12:06:09;107.60;;;101.97;;
16387;SDS011;8303;53.446;9.988;2023-02-28T12:08:47;145.70;;;138.33;;
16387;SDS011;8303;53.446;9.988;2023-02-28T12:11:25;80.53;;;76.23;;
16387;SDS011;8303;53.446;9.988;2023-02-28T12:14:06;62.67;;;59.33;;
16387;SDS011;8303;53.446;9.988;2023-02-28T12:16:57;65.17;;;61.67;;
16387;SDS011;8303;53.446;9.988;2023-02-28T12:19:33;68.33;;;64.67;;
16387;SDS011;8303;53.446;9.988;2023-02-28T12:22:19;67.80;;;64.10;;
16387;SDS011;8303;53.446;9.988;2023-02-28T12:27:53;51.13;;;48.27;;
16387;SDS011;8303;53.446;9.988;2023-02-28T12:30:21;49.20;;;46.53;;
16387;SDS011;8303;53.446;9.988;2023-02-28T12:32:52;86.90;;;82.27;;
16387;SDS011;8303;53.446;9.988;2023-02-28T12:35:22;58.43;;;55.23;;
16387;SDS011;8303;53.446;9.988;2023-02-28T12:37:54;58.50;;;55.20;;
16387;SDS011;8303;53.446;9.988;2023-02-28T12:40:26;70.13;;;66.20;;
16387;SDS011;8303;53.446;9.988;2023-02-28T12:42:59;60.90;;;57.73;;
16387;SDS011;8303;53.446;9.988;2023-02-28T12:45:31;49.47;;;46.77;;
16387;SDS011;8303;53.446;9.988;2023-02-28T12:48:08;76.47;;;72.20;;
16387;SDS011;8303;53.446;9.988;2023-02-28T12:50:39;74.23;;;70.33;;
16387;SDS011;8303;53.446;9.988;2023-02-28T12:53:09;79.00;;;74.67;;
16387;SDS011;8303;53.446;9.988;2023-02-28T12:55:42;61.67;;;58.43;;
16387;SDS011;8303;53.446;9.988;2023-02-28T12:58:16;81.73;;;77.47;;
16387;SDS011;8303;53.446;9.988;2023-02-28T13:01:03;61.23;;;58.00;;
16387;SDS011;8303;53.446;9.988;2023-02-28T13:03:52;49.23;;;46.63;;
16387;SDS011;8303;53.446;9.988;2023-02-28T13:06:45;43.43;;;41.13;;
16387;SDS011;8303;53.446;9.988;2023-02-28T13:09:30;41.37;;;39.13;;
16387;SDS011;8303;53.446;9.988;2023-02-28T13:11:58;53.77;;;50.90;;
16387;SDS011;8303;53.446;9.988;2023-02-28T13:14:26;42.83;;;40.57;;
16387;SDS011;8303;53.446;9.988;2023-02-28T13:16:57;41.63;;;39.43;;
16387;SDS011;8303;53.446;9.988;2023-02-28T13:19:27;44.23;;;41.87;;
16387;SDS011;8303;53.446;9.988;2023-02-28T13:21:57;48.70;;;46.00;;
16387;SDS011;8303;53.446;9.988;2023-02-28T13:24:43;43.80;;;41.50;;
16387;SDS011;8303;53.446;9.988;2023-02-28T13:29:59;34.27;;;32.17;;
16387;SDS011;8303;53.446;9.988;2023-02-28T13:32:31;38.83;;;36.73;;
16387;SDS011;8303;53.446;9.988;2023-02-28T13:44:07;35.40;;;33.30;;
16387;SDS011;8303;53.446;9.988;2023-02-28T13:46:36;36.63;;;34.50;;
16387;SDS011;8303;53.446;9.988;2023-02-28T13:49:27;40.77;;;38.57;;
16387;SDS011;8303;53.446;9.988;2023-02-28T13:52:02;36.93;;;34.40;;
16387;SDS011;8303;53.446;9.988;2023-02-28T13:54:40;34.90;;;33.00;;
16387;SDS011;8303;53.446;9.988;2023-02-28T13:57:22;35.20;;;33.10;;
16387;SDS011;8303;53.446;9.988;2023-02-28T14:00:02;39.03;;;36.93;;
16387;SDS011;8303;53.446;9.988;2023-02-28T14:06:14;44.87;;;41.90;;
16387;SDS011;8303;53.446;9.988;2023-02-28T14:08:52;35.10;;;33.13;;
16387;SDS011;8303;53.446;9.988;2023-02-28T14:11:27;37.87;;;35.77;;
16387;SDS011;8303;53.446;9.988;2023-02-28T14:13:57;37.87;;;35.67;;
16387;SDS011;8303;53.446;9.988;2023-02-28T14:16:26;35.83;;;33.80;;
16387;SDS011;8303;53.446;9.988;2023-02-28T14:19:01;33.63;;;31.63;;
16387;SDS011;8303;53.446;9.988;2023-02-28T14:21:32;34.10;;;32.10;;
16387;SDS011;8303;53.446;9.988;2023-02-28T14:27:00;32.53;;;30.63;;
16387;SDS011;8303;53.446;9.988;2023-02-28T14:30:09;36.43;;;34.37;;
16387;SDS011;8303;53.446;9.988;2023-02-28T14:35:50;31.70;;;29.90;;
16387;SDS011;8303;53.446;9.988;2023-02-28T14:38:27;34.57;;;32.57;;
16387;SDS011;8303;53.446;9.988;2023-02-28T14:40:57;33.90;;;32.03;;
16387;SDS011;8303;53.446;9.988;2023-02-28T14:43:28;33.50;;;31.60;;
16387;SDS011;8303;53.446;9.988;2023-02-28T14:45:55;35.00;;;32.80;;
16387;SDS011;8303;53.446;9.988;2023-02-28T14:48:25;34.17;;;32.17;;
16387;SDS011;8303;53.446;9.988;2023-02-28T14:50:54;36.83;;;34.73;;
16387;SDS011;8303;53.446;9.988;2023-02-28T14:53:23;36.23;;;34.23;;
16387;SDS011;8303;53.446;9.988;2023-02-28T14:55:54;40.97;;;38.73;;
16387;SDS011;8303;53.446;9.988;2023-02-28T14:58:22;42.87;;;40.57;;
16387;SDS011;8303;53.446;9.988;2023-02-28T15:00:52;43.47;;;41.07;;
16387;SDS011;8303;53.446;9.988;2023-02-28T15:03:20;42.23;;;39.87;;
16387;SDS011;8303;53.446;9.988;2023-02-28T15:05:53;41.77;;;39.47;;
16387;SDS011;8303;53.446;9.988;2023-02-28T15:08:22;44.23;;;41.77;;
16387;SDS011;8303;53.446;9.988;2023-02-28T15:10:51;43.00;;;40.53;;
16387;SDS011;8303;53.446;9.988;2023-02-28T15:13:20;42.53;;;40.23;;
16387;SDS011;8303;53.446;9.988;2023-02-28T15:15:49;41.43;;;39.23;;
16387;SDS011;8303;53.446;9.988;2023-02-28T15:18:24;44.00;;;41.63;;
16387;SDS011;8303;53.446;9.988;2023-02-28T15:20:57;43.30;;;40.90;;
16387;SDS011;8303;53.446;9.988;2023-02-28T15:23:29;45.60;;;42.87;;
16387;SDS011;8303;53.446;9.988;2023-02-28T15:25:57;40.07;;;37.97;;
16387;SDS011;8303;53.446;9.988;2023-02-28T15:28:24;47.27;;;44.67;;
16387;SDS011;8303;53.446;9.988;2023-02-28T15:30:52;39.83;;;37.53;;
16387;SDS011;8303;53.446;9.988;2023-02-28T15:33:23;42.90;;;40.57;;
16387;SDS011;8303;53.446;9.988;2023-02-28T15:35:51;46.50;;;43.60;;
16387;SDS011;8303;53.446;9.988;2023-02-28T15:38:33;43.60;;;41.20;;
16387;SDS011;8303;53.446;9.988;2023-02-28T15:41:01;35.63;;;33.60;;
16387;SDS011;8303;53.446;9.988;2023-02-28T15:43:33;33.13;;;31.13;;
16387;SDS011;8303;53.446;9.988;2023-02-28T15:46:04;33.77;;;31.90;;
16387;SDS011;8303;53.446;9.988;2023-02-28T15:48:35;37.60;;;35.50;;
16387;SDS011;8303;53.446;9.988;2023-02-28T15:51:09;40.00;;;37.80;;
16387;SDS011;8303;53.446;9.988;2023-02-28T15:53:47;48.30;;;45.63;;
16387;SDS011;8303;53.446;9.988;2023-02-28T15:56:20;51.43;;;48.43;;
16387;SDS011;8303;53.446;9.988;2023-02-28T15:58:49;61.73;;;58.30;;
16387;SDS011;8303;53.446;9.988;2023-02-28T16:01:20;49.63;;;46.93;;
16387;SDS011;8303;53.446;9.988;2023-02-28T16:03:51;60.93;;;57.53;;
16387;SDS011;8303;53.446;9.988;2023-02-28T16:06:24;55.27;;;52.27;;
16387;SDS011;8303;53.446;9.988;2023-02-28T16:09:05;64.47;;;60.67;;
16387;SDS011;8303;53.446;9.988;2023-02-28T16:11:36;63.10;;;59.70;;
16387;SDS011;8303;53.446;9.988;2023-02-28T16:14:06;65.77;;;62.33;;
16387;SDS011;8303;53.446;9.988;2023-02-28T16:16:41;78.93;;;74.43;;
16387;SDS011;8303;53.446;9.988;2023-02-28T16:19:09;99.43;;;93.87;;
16387;SDS011;8303;53.446;9.988;2023-02-28T16:21:35;106.67;;;101.07;;
16387;SDS011;8303;53.446;9.988;2023-02-28T16:24:02;81.27;;;76.70;;
16387;SDS011;8303;53.446;9.988;2023-02-28T16:26:31;86.30;;;81.77;;
16387;SDS011;8303;53.446;9.988;2023-02-28T16:28:59;70.30;;;66.53;;
16387;SDS011;8303;53.446;9.988;2023-02-28T16:31:27;77.87;;;73.77;;
16387;SDS011;8303;53.446;9.988;2023-02-28T16:33:54;66.03;;;62.43;;
16387;SDS011;8303;53.446;9.988;2023-02-28T16:36:22;73.97;;;69.93;;
16387;SDS011;8303;53.446;9.988;2023-02-28T16:38:50;82.80;;;78.37;;
16387;SDS011;8303;53.446;9.988;2023-02-28T16:41:19;84.50;;;80.00;;
16387;SDS011;8303;53.446;9.988;2023-02-28T16:43:47;103.83;;;98.17;;
16387;SDS011;8303;53.446;9.988;2023-02-28T16:46:17;77.63;;;73.40;;
16387;SDS011;8303;53.446;9.988;2023-02-28T16:48:44;59.37;;;56.07;;
16387;SDS011;8303;53.446;9.988;2023-02-28T16:51:14;62.47;;;59.00;;
16387;SDS011;8303;53.446;9.988;2023-02-28T16:53:41;70.93;;;66.73;;
16387;SDS011;8303;53.446;9.988;2023-02-28T16:56:20;86.40;;;81.77;;
16387;SDS011;8303;53.446;9.988;2023-02-28T16:58:48;59.37;;;56.07;;
16387;SDS011;8303;53.446;9.988;2023-02-28T17:01:16;77.93;;;73.73;;
16387;SDS011;8303;53.446;9.988;2023-02-28T17:03:46;67.13;;;63.23;;
16387;SDS011;8303;53.446;9.988;2023-02-28T17:06:18;50.90;;;47.77;;
16387;SDS011;8303;53.446;9.988;2023-02-28T17:08:47;45.30;;;42.73;;
16387;SDS011;8303;53.446;9.988;2023-02-28T17:11:14;70.13;;;66.20;;
16387;SDS011;8303;53.446;9.988;2023-02-28T17:13:42;46.67;;;43.87;;
16387;SDS011;8303;53.446;9.988;2023-02-28T17:16:14;50.17;;;47.23;;
16387;SDS011;8303;53.446;9.988;2023-02-28T17:18:46;36.43;;;34.33;;
16387;SDS011;8303;53.446;9.988;2023-02-28T17:21:13;50.13;;;47.37;;
16387;SDS011;8303;53.446;9.988;2023-02-28T17:23:41;50.87;;;47.97;;
16387;SDS011;8303;53.446;9.988;2023-02-28T17:26:11;33.90;;;31.77;;
16387;SDS011;8303;53.446;9.988;2023-02-28T17:28:39;30.57;;;28.67;;
16387;SDS011;8303;53.446;9.988;2023-02-28T17:31:08;37.10;;;34.83;;
16387;SDS011;8303;53.446;9.988;2023-02-28T17:33:35;38.43;;;35.97;;
16387;SDS011;8303;53.446;9.988;2023-02-28T17:36:02;32.17;;;30.00;;
16387;SDS011;8303;53.446;9.988;2023-02-28T17:38:29;43.10;;;40.40;;
16387;SDS011;8303;53.446;9.988;2023-02-28T17:40:56;41.20;;;38.63;;
16387;SDS011;8303;53.446;9.988;2023-02-28T17:43:24;28.70;;;26.80;;
16387;SDS011;8303;53.446;9.988;2023-02-28T17:45:51;43.07;;;40.17;;
16387;SDS011;8303;53.446;9.988;2023-02-28T17:48:19;28.50;;;26.53;;
16387;SDS011;8303;53.446;9.988;2023-02-28T17:50:46;27.10;;;25.23;;
16387;SDS011;8303;53.446;9.988;2023-02-28T17:53:13;26.10;;;24.30;;
16387;SDS011;8303;53.446;9.988;2023-02-28T17:55:40;40.83;;;38.10;;
16387;SDS011;8303;53.446;9.988;2023-02-28T17:58:08;27.97;;;26.07;;
16387;SDS011;8303;53.446;9.988;2023-02-28T18:00:36;22.77;;;20.67;;
16387;SDS011;8303;53.446;9.988;2023-02-28T18:03:04;21.87;;;19.83;;
16387;SDS011;8303;53.446;9.988;2023-02-28T18:05:32;20.97;;;19.47;;
16387;SDS011;8303;53.446;9.988;2023-02-28T18:08:01;41.87;;;29.20;;
16387;SDS011;8303;53.446;9.988;2023-02-28T18:10:28;30.53;;;23.53;;
16387;SDS011;8303;53.446;9.988;2023-02-28T18:12:58;24.20;;;21.80;;
16387;SDS011;8303;53.446;9.988;2023-02-28T18:15:25;20.93;;;18.80;;
16387;SDS011;8303;53.446;9.988;2023-02-28T18:17:53;23.63;;;21.13;;
16387;SDS011;8303;53.446;9.988;2023-02-28T18:20:20;18.93;;;17.13;;
16387;SDS011;8303;53.446;9.988;2023-02-28T18:22:48;22.93;;;17.80;;
16387;SDS011;8303;53.446;9.988;2023-02-28T18:25:15;20.00;;;18.17;;
16387;SDS011;8303;53.446;9.988;2023-02-28T18:27:43;22.60;;;20.23;;
16387;SDS011;8303;53.446;9.988;2023-02-28T18:30:22;20.03;;;17.97;;
16387;SDS011;8303;53.446;9.988;2023-02-28T18:32:51;20.77;;;18.97;;
16387;SDS011;8303;53.446;9.988;2023-02-28T18:35:18;19.97;;;17.87;;
16387;SDS011;8303;53.446;9.988;2023-02-28T18:38:00;21.50;;;18.80;;
16387;SDS011;8303;53.446;9.988;2023-02-28T18:40:28;20.80;;;16.13;;
16387;SDS011;8303;53.446;9.988;2023-02-28T18:42:55;17.80;;;16.00;;
16387;SDS011;8303;53.446;9.988;2023-02-28T18:45:22;21.23;;;17.73;;
16387;SDS011;8303;53.446;9.988;2023-02-28T18:47:50;18.60;;;16.67;;
16387;SDS011;8303;53.446;9.988;2023-02-28T18:50:17;21.33;;;16.53;;
16387;SDS011;8303;53.446;9.988;2023-02-28T18:52:44;21.17;;;14.97;;
16387;SDS011;8303;53.446;9.988;2023-02-28T18:55:12;17.87;;;15.17;;
16387;SDS011;8303;53.446;9.988;2023-02-28T18:57:42;17.53;;;14.13;;
16387;SDS011;8303;53.446;9.988;2023-02-28T19:00:11;17.73;;;15.37;;
16387;SDS011;8303;53.446;9.988;2023-02-28T19:02:39;20.00;;;14.00;;
16387;SDS011;8303;53.446;9.988;2023-02-28T19:05:07;19.87;;;13.57;;
16387;SDS011;8303;53.446;9.988;2023-02-28T19:07:36;20.20;;;16.40;;
16387;SDS011;8303;53.446;9.988;2023-02-28T19:10:03;19.57;;;13.53;;
16387;SDS011;8303;53.446;9.988;2023-02-28T19:12:33;19.27;;;14.10;;
16387;SDS011;8303;53.446;9.988;2023-02-28T19:15:01;15.80;;;13.60;;
16387;SDS011;8303;53.446;9.988;2023-02-28T19:17:28;20.03;;;14.80;;
16387;SDS011;8303;53.446;9.988;2023-02-28T19:19:55;19.80;;;14.40;;
16387;SDS011;8303;53.446;9.988;2023-02-28T19:22:22;20.03;;;13.37;;
16387;SDS011;8303;53.446;9.988;2023-02-28T19:24:49;20.13;;;14.23;;
16387;SDS011;8303;53.446;9.988;2023-02-28T19:27:16;19.03;;;13.33;;
16387;SDS011;8303;53.446;9.988;2023-02-28T19:29:46;23.00;;;13.80;;
16387;SDS011;8303;53.446;9.988;2023-02-28T19:32:13;24.30;;;16.00;;
16387;SDS011;8303;53.446;9.988;2023-02-28T19:34:40;27.70;;;15.97;;
16387;SDS011;8303;53.446;9.988;2023-02-28T19:37:07;26.67;;;15.30;;
16387;SDS011;8303;53.446;9.988;2023-02-28T19:39:33;26.40;;;16.47;;
16387;SDS011;8303;53.446;9.988;2023-02-28T19:42:06;24.20;;;16.00;;
16387;SDS011;8303;53.446;9.988;2023-02-28T19:44:32;27.13;;;17.00;;
16387;SDS011;8303;53.446;9.988;2023-02-28T19:47:01;21.30;;;14.97;;
16387;SDS011;8303;53.446;9.988;2023-02-28T19:49:28;23.70;;;15.17;;
16387;SDS011;8303;53.446;9.988;2023-02-28T19:51:56;24.43;;;16.33;;
16387;SDS011;8303;53.446;9.988;2023-02-28T19:54:22;28.33;;;15.20;;
16387;SDS011;8303;53.446;9.988;2023-02-28T19:56:50;21.13;;;14.03;;
16387;SDS011;8303;53.446;9.988;2023-02-28T19:59:18;24.63;;;15.87;;
16387;SDS011;8303;53.446;9.988;2023-02-28T20:01:45;34.90;;;17.33;;
16387;SDS011;8303;53.446;9.988;2023-02-28T20:04:14;25.70;;;16.90;;
16387;SDS011;8303;53.446;9.988;2023-02-28T20:06:41;30.57;;;15.53;;
16387;SDS011;8303;53.446;9.988;2023-02-28T20:09:08;27.17;;;14.57;;
16387;SDS011;8303;53.446;9.988;2023-02-28T20:11:34;29.37;;;15.90;;
16387;SDS011;8303;53.446;9.988;2023-02-28T20:14:03;23.83;;;15.47;;
16387;SDS011;8303;53.446;9.988;2023-02-28T20:16:30;83.87;;;32.90;;
16387;SDS011;8303;53.446;9.988;2023-02-28T20:18:57;126.30;;;39.10;;
16387;SDS011;8303;53.446;9.988;2023-02-28T20:21:25;93.43;;;31.50;;
16387;SDS011;8303;53.446;9.988;2023-02-28T20:23:52;79.87;;;27.67;;
16387;SDS011;8303;53.446;9.988;2023-02-28T20:26:19;54.80;;;23.83;;
16387;SDS011;8303;53.446;9.988;2023-02-28T20:28:46;67.37;;;26.13;;
16387;SDS011;8303;53.446;9.988;2023-02-28T20:31:13;58.57;;;23.50;;
16387;SDS011;8303;53.446;9.988;2023-02-28T20:33:41;45.73;;;18.97;;
16387;SDS011;8303;53.446;9.988;2023-02-28T20:36:08;48.43;;;18.83;;
16387;SDS011;8303;53.446;9.988;2023-02-28T20:38:37;40.67;;;18.10;;
16387;SDS011;8303;53.446;9.988;2023-02-28T20:41:05;29.87;;;15.30;;
16387;SDS011;8303;53.446;9.988;2023-02-28T20:43:32;39.63;;;17.67;;
16387;SDS011;8303;53.446;9.988;2023-02-28T20:46:00;30.20;;;15.60;;
16387;SDS011;8303;53.446;9.988;2023-02-28T20:48:27;26.00;;;14.30;;
16387;SDS011;8303;53.446;9.988;2023-02-28T20:50:56;27.13;;;14.83;;
16387;SDS011;8303;53.446;9.988;2023-02-28T20:53:25;22.90;;;13.97;;
16387;SDS011;8303;53.446;9.988;2023-02-28T20:55:54;19.53;;;12.50;;
16387;SDS011;8303;53.446;9.988;2023-02-28T20:58:22;20.77;;;11.33;;
16387;SDS011;8303;53.446;9.988;2023-02-28T21:00:50;29.70;;;14.40;;
16387;SDS011;8303;53.446;9.988;2023-02-28T21:03:24;29.53;;;15.97;;
16387;SDS011;8303;53.446;9.988;2023-02-28T21:05:51;24.37;;;14.53;;
16387;SDS011;8303;53.446;9.988;2023-02-28T21:08:18;26.60;;;14.53;;
16387;SDS011;8303;53.446;9.988;2023-02-28T21:10:44;27.00;;;16.57;;
16387;SDS011;8303;53.446;9.988;2023-02-28T21:13:13;27.00;;;16.10;;
16387;SDS011;8303;53.446;9.988;2023-02-28T21:15:39;27.47;;;15.83;;
16387;SDS011;8303;53.446;9.988;2023-02-28T21:18:06;27.37;;;15.10;;
16387;SDS011;8303;53.446;9.988;2023-02-28T21:20:33;23.27;;;13.87;;